Decoded Metar for KLXT (LEES SUMMIT MUNI in MO, USA) (IATA:LXT) | Meteo·Mobile Aviation Weather
aviador You're here:

KLXT Decoded Metar

LEES SUMMIT MUNI in MO, USA
Report Time2018-08-19 03:53:00
UTC Time2018-08-19 04:27:03
Flight Rules vfr VFR
Wind130° at 05 kt
W.Decomp.*RWY 11: 4.8 kt HW 1.5 kt RCW
RWY 18: 3.1 kt HW 3.9 kt LCW
W.Rank130° ranks 17
Current wind is below 130° avg. (6.4)
Visibility9999 m
Phenomena:N/A
Clouds:Few 060 Hf
Expected CloudBase > 1,200 ft AGL from Temp-Dew spread
CeilingNone
Temp24°C (ISA +11)
Dew Point21°C (83% RH)
QNH1015 hPa
Density Alt2,543 ft
Elevation1,004 ft
Report Wrong Elevation
Raw Report
KLXT 190353Z AUTO 13005KT 10SM FEW060 24/21 A2997 RMK AO2 SLP139
T02390206 $=

Extra information for KLXT:More info

Metar Taf Metar & Taf Last 4 Metars F.Rules Stats Wind Profile Meteogram Temp Stats Airport Information Weather charts Add Link Nearby VenuesMetar ALERT Operation Metar Decoded Social comments

AIRNAV info for KLXT